Time;durP1;ratioP1;P1;durP2;ratioP2;P2;SDS_P1;SDS_P2;PMS_P1;PMS_P2;Temp;Humidity;BMP_temperature;BMP_pressure;BME280_temperature;BME280_humidity;BME280_pressure;Samples;Min_cycle;Max_cycle;Signal;HPM_P1;HPM_P2
2023/06/14 00:01:55;;;;;;;2.03;0.63;;;;;;;;;;5034416;28;20825;-78
2023/06/14 00:04:21;;;;;;;3.37;1.00;;;;;;;;;;5034642;28;20570;-78
2023/06/14 00:06:50;;;;;;;2.30;0.70;;;;;;;;;;5034751;28;20491;-78
2023/06/14 00:09:17;;;;;;;4.03;1.30;;;;;;;;;;5034529;28;20464;-78
2023/06/14 00:11:43;;;;;;;2.30;0.40;;;;;;;;;;5034597;28;20408;-78
2023/06/14 00:14:09;;;;;;;1.20;0.67;;;;;;;;;;5034525;28;20418;-77
2023/06/14 00:16:36;;;;;;;2.33;1.07;;;;;;;;;;5034214;28;20791;-78
2023/06/14 00:19:05;;;;;;;2.60;1.20;;;;;;;;;;5034419;28;20425;-78
2023/06/14 00:21:32;;;;;;;2.60;1.03;;;;;;;;;;5034481;28;20809;-77
2023/06/14 00:23:58;;;;;;;5.17;1.10;;;;;;;;;;5034367;28;20465;-78
2023/06/14 00:26:26;;;;;;;4.37;1.13;;;;;;;;;;5034357;28;20779;-78
2023/06/14 00:28:51;;;;;;;3.23;1.07;;;;;;;;;;5034333;28;20414;-77
2023/06/14 00:31:17;;;;;;;2.23;0.90;;;;;;;;;;5033912;28;20430;-77
2023/06/14 00:33:43;;;;;;;2.70;1.20;;;;;;;;;;5034243;28;20188;-78
2023/06/14 00:36:09;;;;;;;3.23;1.03;;;;;;;;;;5034211;28;20475;-77
2023/06/14 00:38:35;;;;;;;3.23;1.20;;;;;;;;;;5034129;28;20475;-78
2023/06/14 00:41:01;;;;;;;1.93;0.60;;;;;;;;;;5034003;28;20497;-78
2023/06/14 00:43:27;;;;;;;2.33;0.97;;;;;;;;;;5034055;28;20418;-78
2023/06/14 00:45:53;;;;;;;4.60;1.67;;;;;;;;;;5033779;28;20219;-78
2023/06/14 00:48:19;;;;;;;4.73;1.03;;;;;;;;;;5033863;28;20434;-77
2023/06/14 00:50:45;;;;;;;3.40;1.40;;;;;;;;;;5033925;28;20415;-77
2023/06/14 00:53:12;;;;;;;2.23;1.07;;;;;;;;;;5033781;28;20413;-80
2023/06/14 00:55:38;;;;;;;2.60;0.97;;;;;;;;;;5033767;28;20491;-77
2023/06/14 00:58:04;;;;;;;2.00;1.10;;;;;;;;;;5033454;28;20414;-77
2023/06/14 01:00:30;;;;;;;4.83;1.43;;;;;;;;;;5033701;28;20409;-79
2023/06/14 01:02:56;;;;;;;3.47;1.30;;;;;;;;;;5032093;28;20410;-77
2023/06/14 01:05:23;;;;;;;2.60;1.23;;;;;;;;;;5033656;28;20472;-77
2023/06/14 01:08:01;;;;;;;2.13;1.13;;;;;;;;;;5033576;28;20415;-80
2023/06/14 01:10:41;;;;;;;2.40;0.87;;;;;;;;;;5033388;28;20858;-80
2023/06/14 01:13:26;;;;;;;2.37;1.50;;;;;;;;;;5032205;28;20413;-79
2023/06/14 01:15:52;;;;;;;2.07;1.07;;;;;;;;;;5033032;28;20885;-79
2023/06/14 01:18:18;;;;;;;1.90;0.80;;;;;;;;;;5033384;28;20453;-79
2023/06/14 01:20:49;;;;;;;2.03;0.93;;;;;;;;;;5033314;28;20421;-80
2023/06/14 01:23:15;;;;;;;2.57;1.20;;;;;;;;;;5033332;28;20410;-79
2023/06/14 01:25:44;;;;;;;2.50;1.00;;;;;;;;;;5033164;28;20493;-79
2023/06/14 01:28:11;;;;;;;3.70;0.77;;;;;;;;;;5033330;28;20775;-79
2023/06/14 01:30:38;;;;;;;1.80;1.13;;;;;;;;;;5033274;28;20505;-79
2023/06/14 01:33:05;;;;;;;3.07;1.00;;;;;;;;;;5032791;28;20896;-80
2023/06/14 01:35:31;;;;;;;3.10;1.50;;;;;;;;;;5033143;28;20511;-79
2023/06/14 01:37:57;;;;;;;2.30;1.10;;;;;;;;;;5033150;28;20511;-79
2023/06/14 01:40:26;;;;;;;2.57;1.10;;;;;;;;;;5033094;28;20409;-80
2023/06/14 01:42:52;;;;;;;1.70;0.40;;;;;;;;;;5032947;28;20421;-79
2023/06/14 01:45:19;;;;;;;3.10;2.00;;;;;;;;;;5031667;28;20478;-79
2023/06/14 01:47:45;;;;;;;2.77;0.93;;;;;;;;;;5032723;28;20408;-79
2023/06/14 01:50:12;;;;;;;2.50;0.80;;;;;;;;;;5033025;28;20404;-79
2023/06/14 01:52:38;;;;;;;4.13;1.80;;;;;;;;;;5033015;28;20430;-79
2023/06/14 01:55:07;;;;;;;3.80;1.57;;;;;;;;;;5032935;28;20498;-79
2023/06/14 01:57:33;;;;;;;2.80;1.43;;;;;;;;;;5032893;28;20406;-79
2023/06/14 01:59:59;;;;;;;3.70;1.33;;;;;;;;;;5032885;28;20960;-79
2023/06/14 02:02:25;;;;;;;2.27;1.10;;;;;;;;;;5032520;28;20428;-79
2023/06/14 02:04:52;;;;;;;2.27;0.80;;;;;;;;;;5031399;28;20254;-79
2023/06/14 02:07:18;;;;;;;2.00;0.90;;;;;;;;;;5032891;28;20631;-80
2023/06/14 02:09:44;;;;;;;2.43;1.00;;;;;;;;;;5033696;28;20612;-80
2023/06/14 02:12:10;;;;;;;3.20;1.20;;;;;;;;;;5035635;28;20177;-79
2023/06/14 02:14:38;;;;;;;3.80;1.03;;;;;;;;;;5036787;28;20415;-80
2023/06/14 02:17:04;;;;;;;2.80;1.27;;;;;;;;;;5036431;28;20501;-80
2023/06/14 02:19:30;;;;;;;7.30;1.47;;;;;;;;;;5036723;28;20429;-80
2023/06/14 02:21:56;;;;;;;2.73;1.30;;;;;;;;;;5036730;28;20748;-79
2023/06/14 02:24:23;;;;;;;4.53;2.10;;;;;;;;;;5036471;28;20502;-80
2023/06/14 02:26:50;;;;;;;4.50;1.27;;;;;;;;;;5036536;28;20261;-79
2023/06/14 02:29:16;;;;;;;3.33;1.33;;;;;;;;;;5036575;28;20414;-79
2023/06/14 02:31:42;;;;;;;3.17;1.30;;;;;;;;;;5036200;28;20504;-80
2023/06/14 02:34:08;;;;;;;7.33;2.93;;;;;;;;;;5036453;28;20428;-79
2023/06/14 02:36:34;;;;;;;4.20;1.03;;;;;;;;;;5036377;28;20418;-79
2023/06/14 02:39:00;;;;;;;3.20;2.10;;;;;;;;;;5036414;28;20431;-79
2023/06/14 02:41:26;;;;;;;1.90;1.30;;;;;;;;;;5036230;28;20410;-81
2023/06/14 02:43:53;;;;;;;2.50;0.60;;;;;;;;;;5036195;28;20465;-79
2023/06/14 02:46:18;;;;;;;6.77;1.60;;;;;;;;;;5035903;28;20499;-79
2023/06/14 02:48:45;;;;;;;2.87;1.57;;;;;;;;;;5036146;28;20508;-81
2023/06/14 02:51:12;;;;;;;2.50;0.70;;;;;;;;;;5036189;28;20879;-79
2023/06/14 02:53:38;;;;;;;3.83;1.60;;;;;;;;;;5036071;28;20776;-79
2023/06/14 02:56:04;;;;;;;2.60;1.50;;;;;;;;;;5036053;28;20476;-81
2023/06/14 02:58:30;;;;;;;2.23;1.37;;;;;;;;;;5036054;28;20414;-81
2023/06/14 03:00:56;;;;;;;3.93;1.17;;;;;;;;;;5035634;28;20886;-80
2023/06/14 03:03:24;;;;;;;4.10;2.10;;;;;;;;;;5036082;28;20413;-83
2023/06/14 03:05:51;;;;;;;2.50;1.60;;;;;;;;;;5035814;28;20433;-79
2023/06/14 03:08:19;;;;;;;2.17;1.00;;;;;;;;;;5035829;28;20905;-80
2023/06/14 03:10:46;;;;;;;4.57;1.00;;;;;;;;;;5035623;28;20506;-80
2023/06/14 03:13:12;;;;;;;3.80;1.30;;;;;;;;;;5035717;28;20500;-81
2023/06/14 03:15:38;;;;;;;3.10;1.80;;;;;;;;;;5035345;28;20412;-79
2023/06/14 03:18:04;;;;;;;5.30;1.47;;;;;;;;;;5035499;28;20418;-79
2023/06/14 03:20:32;;;;;;;3.10;1.30;;;;;;;;;;5035374;28;20409;-80
2023/06/14 03:22:58;;;;;;;2.20;1.43;;;;;;;;;;5035551;28;20446;-79
2023/06/14 03:25:25;;;;;;;5.20;1.37;;;;;;;;;;5035424;28;20535;-79
2023/06/14 03:27:51;;;;;;;2.27;0.70;;;;;;;;;;5035470;28;20433;-79
2023/06/14 03:30:17;;;;;;;2.03;0.97;;;;;;;;;;5035371;28;20439;-79
2023/06/14 03:32:43;;;;;;;1.80;0.87;;;;;;;;;;5034968;28;20173;-79
2023/06/14 03:35:16;;;;;;;2.27;1.00;;;;;;;;;;5035342;28;20414;-79
2023/06/14 03:37:42;;;;;;;6.20;1.90;;;;;;;;;;5035318;28;20454;-79
2023/06/14 03:40:08;;;;;;;2.03;0.97;;;;;;;;;;5035254;28;20483;-78
2023/06/14 03:42:34;;;;;;;2.20;0.80;;;;;;;;;;5035147;28;20174;-78
2023/06/14 03:45:00;;;;;;;3.17;1.53;;;;;;;;;;5034474;28;20441;-79
2023/06/14 03:47:27;;;;;;;3.53;1.37;;;;;;;;;;5034704;28;20543;-79
2023/06/14 03:49:53;;;;;;;3.70;1.53;;;;;;;;;;5035017;28;20425;-79
2023/06/14 03:52:19;;;;;;;4.50;1.23;;;;;;;;;;5033801;28;20456;-79
2023/06/14 03:54:46;;;;;;;4.20;1.90;;;;;;;;;;5034923;28;20499;-80
2023/06/14 03:57:12;;;;;;;3.93;1.43;;;;;;;;;;5034945;28;20407;-79
2023/06/14 03:59:38;;;;;;;3.40;1.00;;;;;;;;;;5034905;28;20769;-79
2023/06/14 04:02:04;;;;;;;4.50;1.80;;;;;;;;;;5034480;28;20811;-79
2023/06/14 04:04:30;;;;;;;4.40;1.97;;;;;;;;;;5034647;28;20478;-79
2023/06/14 04:07:00;;;;;;;3.53;1.27;;;;;;;;;;5034705;28;20409;-79
2023/06/14 04:09:26;;;;;;;4.30;1.23;;;;;;;;;;5034806;28;21076;-79
2023/06/14 04:11:53;;;;;;;5.17;1.73;;;;;;;;;;5034484;28;20502;-79
2023/06/14 04:14:19;;;;;;;3.83;1.80;;;;;;;;;;5033773;28;20480;-79
2023/06/14 04:16:46;;;;;;;4.30;1.97;;;;;;;;;;5034027;28;20417;-78
2023/06/14 04:19:12;;;;;;;3.23;1.47;;;;;;;;;;5022485;28;20435;-79
2023/06/14 04:21:38;;;;;;;6.23;2.10;;;;;;;;;;5020579;28;20445;-79
2023/06/14 04:24:05;;;;;;;3.20;1.60;;;;;;;;;;5021563;28;20479;-79
2023/06/14 04:26:33;;;;;;;3.87;1.20;;;;;;;;;;5019015;28;20498;-79
2023/06/14 04:29:01;;;;;;;4.33;1.80;;;;;;;;;;5018691;28;20429;-79
2023/06/14 04:31:29;;;;;;;3.93;1.83;;;;;;;;;;5018984;28;20967;-79
2023/06/14 04:33:55;;;;;;;3.73;1.50;;;;;;;;;;5018641;28;20446;-79
2023/06/14 04:36:21;;;;;;;3.03;1.10;;;;;;;;;;5020002;28;20444;-79
2023/06/14 04:38:48;;;;;;;3.93;2.20;;;;;;;;;;5020377;28;20442;-80
2023/06/14 04:41:15;;;;;;;3.83;1.33;;;;;;;;;;5020809;28;20467;-79
2023/06/14 04:43:42;;;;;;;4.33;1.20;;;;;;;;;;5020617;28;20478;-79
2023/06/14 04:46:10;;;;;;;6.03;1.83;;;;;;;;;;5020237;28;20441;-79
2023/06/14 04:48:43;;;;;;;3.60;1.50;;;;;;;;;;5020122;28;20509;-79
2023/06/14 04:51:10;;;;;;;3.60;1.57;;;;;;;;;;5028183;28;20557;-79
2023/06/14 04:53:36;;;;;;;6.07;2.47;;;;;;;;;;5033793;28;20440;-79
2023/06/14 04:56:03;;;;;;;4.67;1.77;;;;;;;;;;5033734;28;20419;-79
2023/06/14 04:58:29;;;;;;;2.77;1.93;;;;;;;;;;5049147;28;20772;-79
2023/06/14 05:00:59;;;;;;;3.63;1.77;;;;;;;;;;5033338;28;20419;-79
2023/06/14 05:03:25;;;;;;;3.70;2.13;;;;;;;;;;5033596;28;20416;-79
2023/06/14 05:05:53;;;;;;;4.60;1.30;;;;;;;;;;5033683;28;20433;-79
2023/06/14 05:08:19;;;;;;;2.80;2.13;;;;;;;;;;5033572;28;20408;-79
2023/06/14 05:10:45;;;;;;;3.93;1.30;;;;;;;;;;5033379;28;20829;-79
2023/06/14 05:13:11;;;;;;;2.73;1.83;;;;;;;;;;5033409;28;20403;-79
2023/06/14 05:15:37;;;;;;;4.27;1.37;;;;;;;;;;5033187;28;20181;-79
2023/06/14 05:18:03;;;;;;;4.80;1.50;;;;;;;;;;5048804;28;20782;-77
2023/06/14 05:20:30;;;;;;;4.00;2.13;;;;;;;;;;5033445;28;20181;-78
2023/06/14 05:22:56;;;;;;;4.13;1.53;;;;;;;;;;5033338;28;20412;-77
2023/06/14 05:25:22;;;;;;;3.30;1.37;;;;;;;;;;5033223;28;20470;-77
2023/06/14 05:27:49;;;;;;;3.40;1.60;;;;;;;;;;5033218;28;20469;-78
2023/06/14 05:30:15;;;;;;;5.23;1.47;;;;;;;;;;5032841;28;20823;-78
2023/06/14 05:32:41;;;;;;;2.00;1.10;;;;;;;;;;5033301;28;20848;-78
2023/06/14 05:35:08;;;;;;;3.47;2.00;;;;;;;;;;5033167;28;20417;-78
2023/06/14 05:37:34;;;;;;;3.43;1.80;;;;;;;;;;5033130;28;20456;-79
2023/06/14 05:40:00;;;;;;;2.70;1.60;;;;;;;;;;5033149;28;20502;-77
2023/06/14 05:42:25;;;;;;;3.80;1.70;;;;;;;;;;5048503;28;20442;-77
2023/06/14 05:44:52;;;;;;;5.57;2.17;;;;;;;;;;5032034;28;20217;-77
2023/06/14 05:47:18;;;;;;;2.50;1.27;;;;;;;;;;5032696;28;20796;-77
2023/06/14 05:49:43;;;;;;;2.70;1.53;;;;;;;;;;5032971;28;20431;-80
2023/06/14 05:52:11;;;;;;;6.13;2.40;;;;;;;;;;5032972;28;20414;-77
2023/06/14 05:54:37;;;;;;;3.50;1.93;;;;;;;;;;5032873;28;20420;-77
2023/06/14 05:57:04;;;;;;;3.50;1.67;;;;;;;;;;5032263;28;20967;-77
2023/06/14 05:59:30;;;;;;;3.20;1.57;;;;;;;;;;5032925;28;20177;-77
2023/06/14 06:01:56;;;;;;;2.37;1.37;;;;;;;;;;5032538;28;20462;-78
2023/06/14 06:04:22;;;;;;;3.67;1.70;;;;;;;;;;5032758;28;20471;-80
2023/06/14 06:06:48;;;;;;;2.20;1.50;;;;;;;;;;5032844;28;20576;-80
2023/06/14 06:09:16;;;;;;;5.60;1.47;;;;;;;;;;5032650;28;20225;-80
2023/06/14 06:11:42;;;;;;;4.70;2.20;;;;;;;;;;5032796;28;20174;-80
2023/06/14 06:14:08;;;;;;;3.30;1.20;;;;;;;;;;5048121;28;20443;-79
2023/06/14 06:16:35;;;;;;;2.60;1.37;;;;;;;;;;5032473;28;20177;-79
2023/06/14 06:19:01;;;;;;;6.37;2.00;;;;;;;;;;5031690;28;21372;-81
2023/06/14 06:21:27;;;;;;;3.97;2.03;;;;;;;;;;5032375;28;20470;-79
2023/06/14 06:23:54;;;;;;;4.73;1.67;;;;;;;;;;5032605;28;20242;-82
2023/06/14 06:26:20;;;;;;;2.03;1.00;;;;;;;;;;5032642;28;20728;-79
2023/06/14 06:28:46;;;;;;;2.60;1.47;;;;;;;;;;5032801;28;20408;-85
2023/06/14 06:31:12;;;;;;;2.53;0.97;;;;;;;;;;5031898;28;20426;-84
2023/06/14 06:33:39;;;;;;;4.70;1.77;;;;;;;;;;5032563;28;20410;-83
2023/06/14 06:36:05;;;;;;;1.80;1.40;;;;;;;;;;5032641;28;20166;-87
2023/06/14 06:38:31;;;;;;;5.03;1.33;;;;;;;;;;5032575;28;20436;-79
2023/06/14 06:40:57;;;;;;;2.30;1.50;;;;;;;;;;5032672;28;20511;-78
2023/06/14 06:43:23;;;;;;;2.83;1.10;;;;;;;;;;5032582;28;20168;-80
2023/06/14 06:45:49;;;;;;;2.90;1.33;;;;;;;;;;5032213;28;20421;-79
2023/06/14 06:48:15;;;;;;;4.30;1.60;;;;;;;;;;5032551;28;20427;-78
2023/06/14 06:50:41;;;;;;;3.83;0.90;;;;;;;;;;5047824;28;20432;-79
2023/06/14 06:53:07;;;;;;;2.30;0.67;;;;;;;;;;5032466;28;20780;-79
2023/06/14 06:55:33;;;;;;;2.80;1.27;;;;;;;;;;5033207;28;20419;-78
2023/06/14 06:58:00;;;;;;;2.23;1.10;;;;;;;;;;5036139;28;20448;-79
2023/06/14 07:00:26;;;;;;;2.00;1.00;;;;;;;;;;5035775;28;20415;-78
2023/06/14 07:02:54;;;;;;;2.87;1.17;;;;;;;;;;5036037;28;20918;-76
2023/06/14 07:05:20;;;;;;;2.07;0.60;;;;;;;;;;5035884;28;20470;-76
2023/06/14 07:07:46;;;;;;;2.03;0.83;;;;;;;;;;5051365;28;20423;-76
2023/06/14 07:10:16;;;;;;;3.13;1.27;;;;;;;;;;5035693;28;20223;-77
2023/06/14 07:12:42;;;;;;;1.40;0.93;;;;;;;;;;5035782;28;20439;-79
2023/06/14 07:15:08;;;;;;;1.70;0.80;;;;;;;;;;5035505;28;20416;-79
2023/06/14 07:17:34;;;;;;;2.27;1.27;;;;;;;;;;5035747;28;20170;-79
2023/06/14 07:20:05;;;;;;;3.10;1.33;;;;;;;;;;5035681;28;20417;-76
2023/06/14 07:22:31;;;;;;;2.50;1.20;;;;;;;;;;5035611;28;20956;-77
2023/06/14 07:24:57;;;;;;;1.30;0.90;;;;;;;;;;5050985;28;20500;-80
2023/06/14 07:27:22;;;;;;;2.60;1.00;;;;;;;;;;5050911;28;20174;-77
2023/06/14 07:29:48;;;;;;;2.23;0.90;;;;;;;;;;5035235;28;20180;-76
2023/06/14 07:32:14;;;;;;;2.30;1.20;;;;;;;;;;5050825;28;20178;-77
2023/06/14 07:34:40;;;;;;;2.70;1.20;;;;;;;;;;5035399;28;20174;-76
2023/06/14 07:37:06;;;;;;;1.03;0.80;;;;;;;;;;5050718;28;20181;-78
2023/06/14 07:39:32;;;;;;;1.37;0.80;;;;;;;;;;5035349;28;20510;-78
2023/06/14 07:41:58;;;;;;;4.53;1.37;;;;;;;;;;5035343;28;20182;-77
2023/06/14 07:44:24;;;;;;;1.97;1.17;;;;;;;;;;5050557;28;20249;-78
2023/06/14 07:46:50;;;;;;;4.93;1.17;;;;;;;;;;5034737;28;20257;-79
2023/06/14 07:49:16;;;;;;;1.00;0.70;;;;;;;;;;5035200;28;20189;-85
2023/06/14 07:51:44;;;;;;;1.63;0.90;;;;;;;;;;5035161;28;20401;-82
2023/06/14 07:54:10;;;;;;;1.43;1.13;;;;;;;;;;5035070;28;20933;-79
2023/06/14 07:56:36;;;;;;;1.47;0.83;;;;;;;;;;5035011;28;20424;-79
2023/06/14 07:59:02;;;;;;;5.20;1.37;;;;;;;;;;5050307;28;20417;-80
2023/06/14 08:01:28;;;;;;;1.13;0.80;;;;;;;;;;5034457;28;20627;-79
2023/06/14 08:03:54;;;;;;;2.03;1.17;;;;;;;;;;5034809;28;20510;-81
2023/06/14 08:06:20;;;;;;;2.40;0.93;;;;;;;;;;5034326;28;20243;-81
2023/06/14 08:08:46;;;;;;;2.67;1.17;;;;;;;;;;5033389;28;20406;-84
2023/06/14 08:11:12;;;;;;;1.33;1.17;;;;;;;;;;5034923;28;20420;-79
2023/06/14 08:13:38;;;;;;;3.47;1.43;;;;;;;;;;5034790;28;20170;-84
2023/06/14 08:16:05;;;;;;;2.90;1.23;;;;;;;;;;5034294;28;20417;-79
2023/06/14 08:18:31;;;;;;;3.93;1.60;;;;;;;;;;5034709;28;20533;-80
2023/06/14 08:20:57;;;;;;;2.30;1.40;;;;;;;;;;5050039;28;20425;-80
2023/06/14 08:23:23;;;;;;;2.30;1.50;;;;;;;;;;5034568;28;20178;-82
2023/06/14 08:25:49;;;;;;;2.13;1.47;;;;;;;;;;5034636;28;20793;-79
2023/06/14 08:28:15;;;;;;;3.07;1.70;;;;;;;;;;5034465;28;20170;-83
2023/06/14 08:30:42;;;;;;;2.73;1.60;;;;;;;;;;5033977;28;20590;-80
2023/06/14 08:33:08;;;;;;;2.43;1.17;;;;;;;;;;5034091;28;20507;-79
2023/06/14 08:35:36;;;;;;;1.67;1.40;;;;;;;;;;5034336;28;20847;-80
2023/06/14 08:38:03;;;;;;;4.50;1.63;;;;;;;;;;5034414;28;20217;-80
2023/06/14 08:40:30;;;;;;;4.70;1.63;;;;;;;;;;5034220;28;20409;-78
2023/06/14 08:42:56;;;;;;;2.90;1.37;;;;;;;;;;5034185;28;20420;-79
2023/06/14 08:45:25;;;;;;;5.63;1.60;;;;;;;;;;5048927;28;20472;-79
2023/06/14 08:47:51;;;;;;;1.90;1.10;;;;;;;;;;5034104;28;20174;-80
2023/06/14 08:50:29;;;;;;;1.63;1.20;;;;;;;;;;5034044;28;20414;-79
2023/06/14 08:52:57;;;;;;;3.17;1.23;;;;;;;;;;5033743;28;20494;-79
2023/06/14 08:55:27;;;;;;;1.90;1.10;;;;;;;;;;5033931;28;20413;-79
2023/06/14 08:57:54;;;;;;;1.60;1.30;;;;;;;;;;5033802;28;20413;-78
2023/06/14 09:00:20;;;;;;;1.87;1.47;;;;;;;;;;5033481;28;20834;-80
2023/06/14 09:02:46;;;;;;;1.90;1.67;;;;;;;;;;5033615;28;20916;-80
2023/06/14 09:05:13;;;;;;;1.93;1.73;;;;;;;;;;5033498;28;20500;-78
2023/06/14 09:07:43;;;;;;;4.23;2.07;;;;;;;;;;5033687;28;20409;-80
2023/06/14 09:10:12;;;;;;;2.50;1.70;;;;;;;;;;5033443;28;20503;-78
2023/06/14 09:12:42;;;;;;;4.10;1.40;;;;;;;;;;5033551;28;20504;-79
2023/06/14 09:15:08;;;;;;;2.70;1.60;;;;;;;;;;5033177;28;20417;-79
2023/06/14 09:17:40;;;;;;;3.43;1.83;;;;;;;;;;5033538;28;20401;-79
2023/06/14 09:20:10;;;;;;;3.67;1.60;;;;;;;;;;5032999;28;20416;-77
2023/06/14 09:22:36;;;;;;;2.00;1.30;;;;;;;;;;5033367;28;20811;-77
2023/06/14 09:25:02;;;;;;;2.33;1.90;;;;;;;;;;5033278;28;20504;-79
2023/06/14 09:27:29;;;;;;;2.77;1.50;;;;;;;;;;5033348;28;20397;-79
2023/06/14 09:29:55;;;;;;;2.60;1.87;;;;;;;;;;5032958;28;20409;-79
2023/06/14 09:32:21;;;;;;;2.60;1.70;;;;;;;;;;5033285;28;20420;-80
2023/06/14 09:34:48;;;;;;;1.80;1.50;;;;;;;;;;5033221;28;20316;-78
2023/06/14 09:37:14;;;;;;;2.30;1.47;;;;;;;;;;5033148;28;20409;-79
2023/06/14 09:39:50;;;;;;;2.50;1.60;;;;;;;;;;5033164;28;20463;-79
2023/06/14 09:42:19;;;;;;;2.17;1.70;;;;;;;;;;5033271;28;20407;-79
2023/06/14 09:44:48;;;;;;;2.63;1.60;;;;;;;;;;5032733;28;20875;-78
2023/06/14 09:47:17;;;;;;;3.47;3.17;;;;;;;;;;5033081;28;20483;-78
2023/06/14 09:49:43;;;;;;;2.97;2.03;;;;;;;;;;5033042;28;20808;-79
2023/06/14 09:52:14;;;;;;;2.50;1.40;;;;;;;;;;5033040;28;20413;-79
2023/06/14 09:54:46;;;;;;;2.80;1.60;;;;;;;;;;5033108;28;20184;-78
2023/06/14 09:57:12;;;;;;;4.03;1.60;;;;;;;;;;5033072;28;20412;-79
2023/06/14 09:59:41;;;;;;;3.03;1.90;;;;;;;;;;5031295;28;20420;-80
2023/06/14 10:02:12;;;;;;;2.70;1.60;;;;;;;;;;5033008;28;20413;-80
2023/06/14 10:04:39;;;;;;;2.27;2.03;;;;;;;;;;5032882;28;20473;-79
2023/06/14 10:07:05;;;;;;;6.23;1.20;;;;;;;;;;5032815;28;20445;-79
2023/06/14 10:09:32;;;;;;;3.50;1.70;;;;;;;;;;5032718;28;20503;-81
2023/06/14 10:11:58;;;;;;;2.63;1.70;;;;;;;;;;5032905;28;20171;-79
2023/06/14 10:14:25;;;;;;;6.30;2.13;;;;;;;;;;5032491;28;20548;-80
2023/06/14 10:17:10;;;;;;;2.50;1.57;;;;;;;;;;5032851;28;20167;-80
2023/06/14 10:19:42;;;;;;;2.90;2.00;;;;;;;;;;5032738;28;20456;-79
2023/06/14 10:22:17;;;;;;;4.53;2.20;;;;;;;;;;5032783;28;20889;-79
2023/06/14 10:24:44;;;;;;;4.33;1.90;;;;;;;;;;5031465;28;20472;-79
2023/06/14 10:27:10;;;;;;;4.80;2.07;;;;;;;;;;5032734;28;20409;-78
2023/06/14 10:29:55;;;;;;;2.83;1.87;;;;;;;;;;5032437;28;20414;-79
2023/06/14 10:32:23;;;;;;;2.40;2.00;;;;;;;;;;5036366;28;20462;-78
2023/06/14 10:35:02;;;;;;;5.63;1.50;;;;;;;;;;5036624;28;20879;-78
2023/06/14 10:37:28;;;;;;;2.77;1.57;;;;;;;;;;5036508;28;20484;-78
2023/06/14 10:39:54;;;;;;;4.83;1.90;;;;;;;;;;5035103;28;20424;-78
2023/06/14 10:42:22;;;;;;;3.97;2.00;;;;;;;;;;5035161;28;20413;-79
2023/06/14 10:44:51;;;;;;;2.43;1.80;;;;;;;;;;5036014;28;20468;-79
2023/06/14 10:47:25;;;;;;;2.43;1.70;;;;;;;;;;5036413;28;20916;-80
2023/06/14 10:49:52;;;;;;;3.90;1.70;;;;;;;;;;5036264;28;20938;-79
2023/06/14 10:52:21;;;;;;;2.43;2.20;;;;;;;;;;5036277;28;20405;-79
2023/06/14 10:55:00;;;;;;;2.63;2.43;;;;;;;;;;5036201;28;20397;-78
2023/06/14 10:57:26;;;;;;;2.60;1.97;;;;;;;;;;5036179;28;20405;-80
2023/06/14 10:59:52;;;;;;;1.70;1.57;;;;;;;;;;5035799;28;20415;-80
2023/06/14 11:02:28;;;;;;;2.40;1.60;;;;;;;;;;5036095;28;20488;-79
2023/06/14 11:04:56;;;;;;;1.93;1.60;;;;;;;;;;5035813;28;20197;-80
2023/06/14 11:07:34;;;;;;;3.33;1.80;;;;;;;;;;5035862;28;20920;-78
2023/06/14 11:10:00;;;;;;;3.10;1.90;;;;;;;;;;5035764;28;20476;-78
2023/06/14 11:12:28;;;;;;;2.47;2.17;;;;;;;;;;5035849;28;20749;-80
2023/06/14 11:14:54;;;;;;;2.67;1.77;;;;;;;;;;5035401;28;20174;-79
2023/06/14 11:17:20;;;;;;;2.47;1.60;;;;;;;;;;5035752;28;20820;-79
2023/06/14 11:19:46;;;;;;;3.87;1.60;;;;;;;;;;5035763;28;20417;-79
2023/06/14 11:22:14;;;;;;;2.70;1.30;;;;;;;;;;5035734;28;20420;-78
2023/06/14 11:24:40;;;;;;;2.90;2.00;;;;;;;;;;5035583;28;20629;-79
2023/06/14 11:27:08;;;;;;;2.53;1.80;;;;;;;;;;5035521;28;20433;-78
2023/06/14 11:29:34;;;;;;;3.20;1.80;;;;;;;;;;5035241;28;20413;-78
2023/06/14 11:32:00;;;;;;;2.70;1.63;;;;;;;;;;5035527;28;20417;-79
2023/06/14 11:34:26;;;;;;;3.43;1.90;;;;;;;;;;5035362;28;20945;-79
2023/06/14 11:36:52;;;;;;;5.70;2.00;;;;;;;;;;5035315;28;20417;-77
2023/06/14 11:39:24;;;;;;;7.50;2.17;;;;;;;;;;5035366;28;20177;-79
2023/06/14 11:41:50;;;;;;;2.10;1.90;;;;;;;;;;5035206;28;20409;-78
2023/06/14 11:44:16;;;;;;;3.97;2.30;;;;;;;;;;5034784;28;20461;-84
2023/06/14 11:46:42;;;;;;;4.67;2.43;;;;;;;;;;5035329;28;20273;-79
2023/06/14 11:49:09;;;;;;;3.87;2.30;;;;;;;;;;5035159;28;20666;-78
2023/06/14 11:51:35;;;;;;;2.30;1.73;;;;;;;;;;5035137;28;20531;-78
2023/06/14 11:54:02;;;;;;;3.83;1.87;;;;;;;;;;5033781;28;20428;-78
2023/06/14 11:56:28;;;;;;;2.50;1.90;;;;;;;;;;5035117;28;20412;-79
2023/06/14 11:58:56;;;;;;;2.77;1.53;;;;;;;;;;5035097;28;20417;-79
2023/06/14 12:01:23;;;;;;;4.53;1.53;;;;;;;;;;5034754;28;20445;-81
2023/06/14 12:03:49;;;;;;;3.90;2.00;;;;;;;;;;5034841;28;20408;-79
2023/06/14 12:06:15;;;;;;;3.53;2.23;;;;;;;;;;5034833;28;20417;-78
2023/06/14 12:08:45;;;;;;;4.73;2.00;;;;;;;;;;5034641;28;20919;-79
2023/06/14 12:11:11;;;;;;;2.63;1.73;;;;;;;;;;5034764;28;20847;-79
2023/06/14 12:13:40;;;;;;;3.50;2.37;;;;;;;;;;5034657;28;20504;-80
2023/06/14 12:16:12;;;;;;;5.27;1.93;;;;;;;;;;5034493;28;20920;-79
2023/06/14 12:18:39;;;;;;;4.00;2.07;;;;;;;;;;5034520;28;20417;-81
2023/06/14 12:21:06;;;;;;;3.07;2.13;;;;;;;;;;5034639;28;20812;-80
2023/06/14 12:23:49;;;;;;;2.23;1.90;;;;;;;;;;5034526;28;20409;-79
2023/06/14 12:26:16;;;;;;;7.13;2.00;;;;;;;;;;5034521;28;20437;-79
2023/06/14 12:28:43;;;;;;;2.90;1.90;;;;;;;;;;5034401;28;20492;-78
2023/06/14 12:31:09;;;;;;;3.30;1.57;;;;;;;;;;5032095;28;20425;-79
2023/06/14 12:33:35;;;;;;;3.43;2.23;;;;;;;;;;5022248;28;20428;-82
2023/06/14 12:36:03;;;;;;;8.30;2.90;;;;;;;;;;5027456;28;20405;-78
2023/06/14 12:38:29;;;;;;;2.90;1.60;;;;;;;;;;5022480;28;20418;-81
2023/06/14 12:40:55;;;;;;;4.87;2.07;;;;;;;;;;5025375;28;20440;-80
2023/06/14 12:43:21;;;;;;;2.43;1.73;;;;;;;;;;5022672;28;20177;-84
2023/06/14 12:45:47;;;;;;;4.70;2.20;;;;;;;;;;5023390;28;20828;-83
2023/06/14 12:48:13;;;;;;;6.53;1.70;;;;;;;;;;5023293;28;20177;-80
2023/06/14 12:50:39;;;;;;;2.87;2.30;;;;;;;;;;5023753;28;20422;-80
2023/06/14 12:53:05;;;;;;;2.33;1.40;;;;;;;;;;5022166;28;20450;-82
2023/06/14 12:55:31;;;;;;;7.50;2.07;;;;;;;;;;5023208;28;20999;-81
2023/06/14 12:57:57;;;;;;;3.70;1.80;;;;;;;;;;5024459;28;20254;-81
2023/06/14 13:00:23;;;;;;;3.13;1.90;;;;;;;;;;5022130;28;20189;-83
2023/06/14 13:02:50;;;;;;;5.57;1.77;;;;;;;;;;5072572;22;20231;-85
2023/06/14 13:05:16;;;;;;;2.23;1.20;;;;;;;;;;4995252;28;20478;-84
2023/06/14 13:07:42;;;;;;;2.13;1.87;;;;;;;;;;4993704;28;20767;-85
2023/06/14 13:10:08;;;;;;;2.47;1.70;;;;;;;;;;4993889;28;20202;-84
2023/06/14 13:12:34;;;;;;;4.80;1.87;;;;;;;;;;4992204;28;20448;-79
2023/06/14 13:15:00;;;;;;;3.30;1.90;;;;;;;;;;4993441;28;20469;-85
2023/06/14 13:17:27;;;;;;;5.73;1.83;;;;;;;;;;4993956;28;20457;-80
2023/06/14 13:19:53;;;;;;;4.07;1.60;;;;;;;;;;4992323;28;20438;-85
2023/06/14 13:22:19;;;;;;;3.30;2.50;;;;;;;;;;4993757;28;20460;-81
2023/06/14 13:24:45;;;;;;;1.90;1.57;;;;;;;;;;4993292;28;20477;-82
2023/06/14 13:27:11;;;;;;;1.90;1.60;;;;;;;;;;4992418;28;20411;-81
2023/06/14 13:29:37;;;;;;;2.50;1.47;;;;;;;;;;4993277;28;20172;-84
2023/06/14 13:32:03;;;;;;;3.67;1.90;;;;;;;;;;4993516;28;20415;-84
2023/06/14 13:34:29;;;;;;;3.93;1.73;;;;;;;;;;4993477;28;20926;-81
2023/06/14 13:36:55;;;;;;;4.07;2.03;;;;;;;;;;4993386;28;20418;-82
2023/06/14 13:39:22;;;;;;;2.63;1.60;;;;;;;;;;4993473;28;20793;-84
2023/06/14 13:41:47;;;;;;;2.50;1.60;;;;;;;;;;4993569;28;20171;-84
2023/06/14 13:44:13;;;;;;;1.80;1.70;;;;;;;;;;4993008;28;20470;-81
2023/06/14 13:46:39;;;;;;;3.37;1.63;;;;;;;;;;4993448;28;20635;-81
2023/06/14 13:49:06;;;;;;;4.33;1.90;;;;;;;;;;4993270;28;20473;-81
2023/06/14 13:51:33;;;;;;;3.43;1.70;;;;;;;;;;4993297;28;20457;-81
2023/06/14 13:53:59;;;;;;;5.60;1.90;;;;;;;;;;4993281;28;20469;-80
2023/06/14 13:56:25;;;;;;;2.43;1.10;;;;;;;;;;4992890;28;20426;-83
2023/06/14 13:58:51;;;;;;;4.33;1.93;;;;;;;;;;4992717;28;20414;-84
2023/06/14 14:01:19;;;;;;;3.50;2.00;;;;;;;;;;4993070;28;20418;-84
2023/06/14 14:03:49;;;;;;;3.63;1.80;;;;;;;;;;4991640;28;20477;-82
2023/06/14 14:06:15;;;;;;;4.03;2.10;;;;;;;;;;4995205;28;20942;-79
2023/06/14 14:08:41;;;;;;;3.07;1.60;;;;;;;;;;4997276;28;20478;-90
2023/06/14 14:11:07;;;;;;;6.80;1.70;;;30.70;1.00;;;;;;4993959;28;20510;-84
2023/06/14 14:13:33;;;;;;;2.50;1.40;;;30.90;1.00;;;;;;4986094;28;20262;-86
2023/06/14 14:15:59;;;;;;;2.07;1.70;;;30.70;1.00;;;;;;4984517;28;20518;-79
2023/06/14 14:18:25;;;;;;;2.20;1.50;;;30.30;1.00;;;;;;4987123;28;20506;-80
2023/06/14 14:20:51;;;;;;;3.50;2.10;;;29.90;1.00;;;;;;4996039;28;20440;-82
2023/06/14 14:23:16;;;;;;;7.57;2.30;;;29.50;1.00;;;;;;4993423;28;20831;-87
2023/06/14 14:25:42;;;;;;;3.03;1.60;;;29.20;1.00;;;;;;4995729;28;20204;-81
2023/06/14 14:28:07;;;;;;;2.50;1.27;;;28.90;1.00;;;;;;4985959;28;20180;-81
2023/06/14 14:30:34;;;;;;;3.23;1.87;;;28.70;1.00;;;;;;4985700;28;20171;-81
2023/06/14 14:32:59;;;;;;;1.70;1.23;;;28.80;1.00;;;;;;4978443;28;20172;-80
2023/06/14 14:35:30;;;;;;;2.67;1.80;;;29.00;1.00;;;;;;4977905;28;20525;-79
2023/06/14 14:37:55;;;;;;;2.50;1.67;;;29.00;1.00;;;;;;4994595;28;20202;-80